sensor_id;sensor_type;location;lat;lon;timestamp;P1;durP1;ratioP1;P2;durP2;ratioP2
7076;SDS011;3579;48.956;9.154;2022-09-09T00:00:18;1.53;;;1.10;;
7076;SDS011;3579;48.956;9.154;2022-09-09T00:02:50;1.20;;;1.10;;
7076;SDS011;3579;48.956;9.154;2022-09-09T00:08:09;1.70;;;1.10;;
7076;SDS011;3579;48.956;9.154;2022-09-09T00:10:46;1.17;;;1.00;;
7076;SDS011;3579;48.956;9.154;2022-09-09T00:13:40;1.83;;;1.33;;
7076;SDS011;3579;48.956;9.154;2022-09-09T00:21:38;0.87;;;0.87;;
7076;SDS011;3579;48.956;9.154;2022-09-09T00:24:17;1.53;;;1.03;;
7076;SDS011;3579;48.956;9.154;2022-09-09T00:26:47;1.37;;;1.13;;
7076;SDS011;3579;48.956;9.154;2022-09-09T00:29:24;1.60;;;1.23;;
7076;SDS011;3579;48.956;9.154;2022-09-09T00:32:15;1.40;;;1.07;;
7076;SDS011;3579;48.956;9.154;2022-09-09T00:34:48;1.63;;;1.10;;
7076;SDS011;3579;48.956;9.154;2022-09-09T00:37:18;1.10;;;1.00;;
7076;SDS011;3579;48.956;9.154;2022-09-09T00:39:46;1.93;;;1.03;;
7076;SDS011;3579;48.956;9.154;2022-09-09T00:42:15;1.60;;;1.10;;
7076;SDS011;3579;48.956;9.154;2022-09-09T00:55:56;1.30;;;1.00;;
7076;SDS011;3579;48.956;9.154;2022-09-09T00:58:31;1.37;;;1.10;;
7076;SDS011;3579;48.956;9.154;2022-09-09T01:03:35;1.80;;;1.10;;
7076;SDS011;3579;48.956;9.154;2022-09-09T01:06:11;1.20;;;0.90;;
7076;SDS011;3579;48.956;9.154;2022-09-09T01:16:40;1.20;;;0.93;;
7076;SDS011;3579;48.956;9.154;2022-09-09T01:19:07;1.50;;;1.10;;
7076;SDS011;3579;48.956;9.154;2022-09-09T01:27:36;1.20;;;1.10;;
7076;SDS011;3579;48.956;9.154;2022-09-09T01:30:08;1.77;;;1.30;;
7076;SDS011;3579;48.956;9.154;2022-09-09T01:35:03;1.60;;;1.10;;
7076;SDS011;3579;48.956;9.154;2022-09-09T01:37:30;1.10;;;1.00;;
7076;SDS011;3579;48.956;9.154;2022-09-09T01:39:56;1.30;;;1.10;;
7076;SDS011;3579;48.956;9.154;2022-09-09T01:42:22;1.43;;;1.10;;
7076;SDS011;3579;48.956;9.154;2022-09-09T01:44:48;1.43;;;1.03;;
7076;SDS011;3579;48.956;9.154;2022-09-09T01:47:14;1.93;;;1.20;;
7076;SDS011;3579;48.956;9.154;2022-09-09T01:49:40;2.47;;;1.27;;
7076;SDS011;3579;48.956;9.154;2022-09-09T01:52:07;1.63;;;1.07;;
7076;SDS011;3579;48.956;9.154;2022-09-09T01:54:34;1.23;;;1.00;;
7076;SDS011;3579;48.956;9.154;2022-09-09T01:57:19;1.97;;;1.10;;
7076;SDS011;3579;48.956;9.154;2022-09-09T02:00:10;1.27;;;1.00;;
7076;SDS011;3579;48.956;9.154;2022-09-09T02:02:42;1.40;;;1.00;;
7076;SDS011;3579;48.956;9.154;2022-09-09T02:08:09;1.30;;;1.10;;
7076;SDS011;3579;48.956;9.154;2022-09-09T02:13:12;1.57;;;1.20;;
7076;SDS011;3579;48.956;9.154;2022-09-09T02:18:28;1.40;;;1.20;;
7076;SDS011;3579;48.956;9.154;2022-09-09T02:21:00;1.73;;;1.10;;
7076;SDS011;3579;48.956;9.154;2022-09-09T02:23:28;1.00;;;0.90;;
7076;SDS011;3579;48.956;9.154;2022-09-09T02:25:55;1.13;;;0.97;;
7076;SDS011;3579;48.956;9.154;2022-09-09T02:28:24;1.27;;;1.10;;
7076;SDS011;3579;48.956;9.154;2022-09-09T02:30:53;1.20;;;1.10;;
7076;SDS011;3579;48.956;9.154;2022-09-09T02:33:24;1.20;;;1.10;;
7076;SDS011;3579;48.956;9.154;2022-09-09T02:35:53;1.30;;;1.13;;
7076;SDS011;3579;48.956;9.154;2022-09-09T02:38:22;1.40;;;0.90;;
7076;SDS011;3579;48.956;9.154;2022-09-09T02:40:54;1.37;;;1.03;;
7076;SDS011;3579;48.956;9.154;2022-09-09T02:43:20;1.10;;;1.00;;
7076;SDS011;3579;48.956;9.154;2022-09-09T02:45:51;1.10;;;1.00;;
7076;SDS011;3579;48.956;9.154;2022-09-09T02:48:50;1.67;;;1.20;;
7076;SDS011;3579;48.956;9.154;2022-09-09T02:54:35;2.40;;;1.20;;
7076;SDS011;3579;48.956;9.154;2022-09-09T02:59:36;1.50;;;1.10;;
7076;SDS011;3579;48.956;9.154;2022-09-09T03:02:02;1.00;;;0.90;;
7076;SDS011;3579;48.956;9.154;2022-09-09T03:04:29;2.03;;;1.00;;
7076;SDS011;3579;48.956;9.154;2022-09-09T03:06:56;1.20;;;1.00;;
7076;SDS011;3579;48.956;9.154;2022-09-09T03:09:24;1.23;;;1.07;;
7076;SDS011;3579;48.956;9.154;2022-09-09T03:11:51;1.10;;;1.00;;
7076;SDS011;3579;48.956;9.154;2022-09-09T03:14:17;1.43;;;1.20;;
7076;SDS011;3579;48.956;9.154;2022-09-09T03:16:46;0.87;;;0.80;;
7076;SDS011;3579;48.956;9.154;2022-09-09T03:19:13;1.37;;;1.10;;
7076;SDS011;3579;48.956;9.154;2022-09-09T03:21:39;2.00;;;1.07;;
7076;SDS011;3579;48.956;9.154;2022-09-09T03:24:05;1.37;;;1.00;;
7076;SDS011;3579;48.956;9.154;2022-09-09T03:26:32;1.03;;;0.93;;
7076;SDS011;3579;48.956;9.154;2022-09-09T03:28:58;1.30;;;1.00;;
7076;SDS011;3579;48.956;9.154;2022-09-09T03:31:26;1.40;;;1.10;;
7076;SDS011;3579;48.956;9.154;2022-09-09T03:33:56;1.17;;;1.00;;
7076;SDS011;3579;48.956;9.154;2022-09-09T03:36:23;1.13;;;1.00;;
7076;SDS011;3579;48.956;9.154;2022-09-09T03:38:53;1.20;;;1.10;;
7076;SDS011;3579;48.956;9.154;2022-09-09T03:41:21;1.10;;;1.00;;
7076;SDS011;3579;48.956;9.154;2022-09-09T03:43:50;1.00;;;0.90;;
7076;SDS011;3579;48.956;9.154;2022-09-09T03:46:17;1.20;;;0.90;;
7076;SDS011;3579;48.956;9.154;2022-09-09T03:48:44;1.10;;;1.00;;
7076;SDS011;3579;48.956;9.154;2022-09-09T03:51:10;1.20;;;1.10;;
7076;SDS011;3579;48.956;9.154;2022-09-09T03:53:36;1.10;;;1.00;;
7076;SDS011;3579;48.956;9.154;2022-09-09T03:56:03;1.40;;;1.10;;
7076;SDS011;3579;48.956;9.154;2022-09-09T03:58:32;1.40;;;1.17;;
7076;SDS011;3579;48.956;9.154;2022-09-09T04:01:00;2.37;;;1.00;;
7076;SDS011;3579;48.956;9.154;2022-09-09T04:03:40;1.23;;;1.10;;
7076;SDS011;3579;48.956;9.154;2022-09-09T04:06:06;1.07;;;1.00;;
7076;SDS011;3579;48.956;9.154;2022-09-09T04:08:34;1.40;;;0.97;;
7076;SDS011;3579;48.956;9.154;2022-09-09T04:11:02;1.20;;;1.10;;
7076;SDS011;3579;48.956;9.154;2022-09-09T04:13:32;1.50;;;1.10;;
7076;SDS011;3579;48.956;9.154;2022-09-09T04:15:59;1.10;;;1.00;;
7076;SDS011;3579;48.956;9.154;2022-09-09T04:18:27;1.13;;;1.03;;
7076;SDS011;3579;48.956;9.154;2022-09-09T04:20:54;1.10;;;1.00;;
7076;SDS011;3579;48.956;9.154;2022-09-09T04:23:22;1.23;;;1.00;;
7076;SDS011;3579;48.956;9.154;2022-09-09T04:25:50;1.10;;;1.00;;
7076;SDS011;3579;48.956;9.154;2022-09-09T04:28:18;1.10;;;1.00;;
7076;SDS011;3579;48.956;9.154;2022-09-09T04:30:46;1.00;;;1.00;;
7076;SDS011;3579;48.956;9.154;2022-09-09T04:33:13;1.93;;;1.20;;
7076;SDS011;3579;48.956;9.154;2022-09-09T04:35:43;1.30;;;1.10;;
7076;SDS011;3579;48.956;9.154;2022-09-09T04:38:11;1.20;;;1.03;;
7076;SDS011;3579;48.956;9.154;2022-09-09T04:40:37;1.80;;;1.20;;
7076;SDS011;3579;48.956;9.154;2022-09-09T04:43:05;1.93;;;1.20;;
7076;SDS011;3579;48.956;9.154;2022-09-09T04:45:32;1.50;;;1.17;;
7076;SDS011;3579;48.956;9.154;2022-09-09T04:47:58;5.13;;;1.00;;
7076;SDS011;3579;48.956;9.154;2022-09-09T04:50:25;2.47;;;1.30;;
7076;SDS011;3579;48.956;9.154;2022-09-09T04:52:51;2.10;;;1.30;;
7076;SDS011;3579;48.956;9.154;2022-09-09T04:55:17;1.63;;;1.10;;
7076;SDS011;3579;48.956;9.154;2022-09-09T04:57:44;1.67;;;1.10;;
7076;SDS011;3579;48.956;9.154;2022-09-09T05:00:10;1.50;;;1.00;;
7076;SDS011;3579;48.956;9.154;2022-09-09T05:02:39;1.83;;;1.20;;
7076;SDS011;3579;48.956;9.154;2022-09-09T05:05:05;1.70;;;1.00;;
7076;SDS011;3579;48.956;9.154;2022-09-09T05:07:32;2.23;;;1.10;;
7076;SDS011;3579;48.956;9.154;2022-09-09T05:09:58;1.83;;;1.20;;
7076;SDS011;3579;48.956;9.154;2022-09-09T05:12:24;1.77;;;1.20;;
7076;SDS011;3579;48.956;9.154;2022-09-09T05:14:53;2.93;;;1.20;;
7076;SDS011;3579;48.956;9.154;2022-09-09T05:17:19;1.93;;;1.40;;
7076;SDS011;3579;48.956;9.154;2022-09-09T05:19:45;2.83;;;1.77;;
7076;SDS011;3579;48.956;9.154;2022-09-09T05:22:11;2.10;;;1.33;;
7076;SDS011;3579;48.956;9.154;2022-09-09T05:24:37;2.50;;;1.50;;
7076;SDS011;3579;48.956;9.154;2022-09-09T05:27:04;2.40;;;1.47;;
7076;SDS011;3579;48.956;9.154;2022-09-09T05:29:31;1.93;;;1.23;;
7076;SDS011;3579;48.956;9.154;2022-09-09T05:32:01;2.67;;;1.40;;
7076;SDS011;3579;48.956;9.154;2022-09-09T05:34:27;3.53;;;1.40;;
7076;SDS011;3579;48.956;9.154;2022-09-09T05:36:53;3.83;;;1.57;;
7076;SDS011;3579;48.956;9.154;2022-09-09T05:39:20;1.77;;;1.40;;
7076;SDS011;3579;48.956;9.154;2022-09-09T05:41:47;2.13;;;1.30;;
7076;SDS011;3579;48.956;9.154;2022-09-09T05:44:13;2.50;;;1.20;;
7076;SDS011;3579;48.956;9.154;2022-09-09T05:46:39;1.80;;;1.27;;
7076;SDS011;3579;48.956;9.154;2022-09-09T05:49:06;3.73;;;1.50;;
7076;SDS011;3579;48.956;9.154;2022-09-09T05:51:32;2.30;;;1.43;;
7076;SDS011;3579;48.956;9.154;2022-09-09T05:53:58;1.83;;;1.40;;
7076;SDS011;3579;48.956;9.154;2022-09-09T05:56:25;2.40;;;1.30;;
7076;SDS011;3579;48.956;9.154;2022-09-09T05:58:53;2.57;;;1.30;;
7076;SDS011;3579;48.956;9.154;2022-09-09T06:01:21;2.30;;;1.50;;
7076;SDS011;3579;48.956;9.154;2022-09-09T06:03:49;2.20;;;1.30;;
7076;SDS011;3579;48.956;9.154;2022-09-09T06:06:17;4.13;;;1.40;;
7076;SDS011;3579;48.956;9.154;2022-09-09T06:08:49;3.07;;;1.20;;
7076;SDS011;3579;48.956;9.154;2022-09-09T06:11:21;3.10;;;1.20;;
7076;SDS011;3579;48.956;9.154;2022-09-09T06:13:48;2.47;;;1.30;;
7076;SDS011;3579;48.956;9.154;2022-09-09T06:16:19;1.63;;;1.30;;
7076;SDS011;3579;48.956;9.154;2022-09-09T06:18:49;3.07;;;1.33;;
7076;SDS011;3579;48.956;9.154;2022-09-09T06:21:17;2.30;;;1.20;;
7076;SDS011;3579;48.956;9.154;2022-09-09T06:23:45;2.43;;;1.10;;
7076;SDS011;3579;48.956;9.154;2022-09-09T06:26:14;2.33;;;1.40;;
7076;SDS011;3579;48.956;9.154;2022-09-09T06:28:45;3.77;;;1.40;;
7076;SDS011;3579;48.956;9.154;2022-09-09T06:31:14;3.13;;;1.43;;
7076;SDS011;3579;48.956;9.154;2022-09-09T06:33:42;3.67;;;1.30;;
7076;SDS011;3579;48.956;9.154;2022-09-09T06:36:14;3.13;;;1.20;;
7076;SDS011;3579;48.956;9.154;2022-09-09T06:38:41;2.13;;;1.20;;
7076;SDS011;3579;48.956;9.154;2022-09-09T06:41:08;3.73;;;1.50;;
7076;SDS011;3579;48.956;9.154;2022-09-09T06:43:35;3.10;;;1.50;;
7076;SDS011;3579;48.956;9.154;2022-09-09T06:46:03;2.47;;;1.30;;
7076;SDS011;3579;48.956;9.154;2022-09-09T06:48:31;1.73;;;1.10;;
7076;SDS011;3579;48.956;9.154;2022-09-09T06:51:05;3.23;;;1.53;;
7076;SDS011;3579;48.956;9.154;2022-09-09T06:53:33;3.60;;;1.57;;
7076;SDS011;3579;48.956;9.154;2022-09-09T06:56:00;2.43;;;1.40;;
7076;SDS011;3579;48.956;9.154;2022-09-09T06:58:28;2.73;;;1.40;;
7076;SDS011;3579;48.956;9.154;2022-09-09T07:01:04;2.83;;;1.37;;
7076;SDS011;3579;48.956;9.154;2022-09-09T07:03:31;2.37;;;1.40;;
7076;SDS011;3579;48.956;9.154;2022-09-09T07:05:59;1.97;;;1.40;;
7076;SDS011;3579;48.956;9.154;2022-09-09T07:08:25;3.57;;;1.60;;
7076;SDS011;3579;48.956;9.154;2022-09-09T07:10:52;1.90;;;1.30;;
7076;SDS011;3579;48.956;9.154;2022-09-09T07:13:25;2.30;;;1.30;;
7076;SDS011;3579;48.956;9.154;2022-09-09T07:15:52;2.00;;;1.30;;
7076;SDS011;3579;48.956;9.154;2022-09-09T07:18:19;3.00;;;1.50;;
7076;SDS011;3579;48.956;9.154;2022-09-09T07:20:52;1.63;;;1.30;;
7076;SDS011;3579;48.956;9.154;2022-09-09T07:23:20;2.97;;;1.43;;
7076;SDS011;3579;48.956;9.154;2022-09-09T07:25:46;4.00;;;1.40;;
7076;SDS011;3579;48.956;9.154;2022-09-09T07:28:13;2.00;;;1.30;;
7076;SDS011;3579;48.956;9.154;2022-09-09T07:30:40;2.30;;;1.50;;
7076;SDS011;3579;48.956;9.154;2022-09-09T07:33:06;2.40;;;1.20;;
7076;SDS011;3579;48.956;9.154;2022-09-09T07:35:32;2.30;;;1.30;;
7076;SDS011;3579;48.956;9.154;2022-09-09T07:38:00;2.57;;;1.40;;
7076;SDS011;3579;48.956;9.154;2022-09-09T07:40:27;4.00;;;1.50;;
7076;SDS011;3579;48.956;9.154;2022-09-09T07:42:53;5.00;;;1.70;;
7076;SDS011;3579;48.956;9.154;2022-09-09T07:45:19;5.00;;;1.80;;
7076;SDS011;3579;48.956;9.154;2022-09-09T07:47:45;6.00;;;1.50;;
7076;SDS011;3579;48.956;9.154;2022-09-09T07:50:13;4.47;;;1.90;;
7076;SDS011;3579;48.956;9.154;2022-09-09T07:52:40;4.43;;;1.83;;
7076;SDS011;3579;48.956;9.154;2022-09-09T07:55:06;7.23;;;1.90;;
7076;SDS011;3579;48.956;9.154;2022-09-09T07:57:32;7.77;;;1.80;;
7076;SDS011;3579;48.956;9.154;2022-09-09T07:59:58;4.63;;;2.00;;
7076;SDS011;3579;48.956;9.154;2022-09-09T08:02:24;3.13;;;1.30;;
7076;SDS011;3579;48.956;9.154;2022-09-09T08:04:53;6.93;;;1.80;;
7076;SDS011;3579;48.956;9.154;2022-09-09T08:07:19;6.73;;;1.60;;
7076;SDS011;3579;48.956;9.154;2022-09-09T08:09:46;6.23;;;1.60;;
7076;SDS011;3579;48.956;9.154;2022-09-09T08:12:13;4.53;;;1.53;;
7076;SDS011;3579;48.956;9.154;2022-09-09T08:14:39;2.63;;;1.20;;
7076;SDS011;3579;48.956;9.154;2022-09-09T08:17:06;6.10;;;1.70;;
7076;SDS011;3579;48.956;9.154;2022-09-09T08:19:33;4.27;;;1.50;;
7076;SDS011;3579;48.956;9.154;2022-09-09T08:22:01;5.47;;;1.43;;
7076;SDS011;3579;48.956;9.154;2022-09-09T08:24:28;7.03;;;1.67;;
7076;SDS011;3579;48.956;9.154;2022-09-09T08:26:55;5.10;;;1.60;;
7076;SDS011;3579;48.956;9.154;2022-09-09T08:29:22;4.93;;;1.83;;
7076;SDS011;3579;48.956;9.154;2022-09-09T08:31:50;4.73;;;1.67;;
7076;SDS011;3579;48.956;9.154;2022-09-09T08:34:20;4.77;;;1.73;;
7076;SDS011;3579;48.956;9.154;2022-09-09T08:36:47;7.10;;;1.80;;
7076;SDS011;3579;48.956;9.154;2022-09-09T08:39:15;4.30;;;1.53;;
7076;SDS011;3579;48.956;9.154;2022-09-09T08:49:56;5.50;;;1.90;;
7076;SDS011;3579;48.956;9.154;2022-09-09T08:56:15;4.80;;;1.77;;
7076;SDS011;3579;48.956;9.154;2022-09-09T08:58:48;5.30;;;1.33;;
7076;SDS011;3579;48.956;9.154;2022-09-09T09:12:41;4.17;;;1.70;;
7076;SDS011;3579;48.956;9.154;2022-09-09T09:15:26;6.27;;;1.73;;
7076;SDS011;3579;48.956;9.154;2022-09-09T09:17:56;8.30;;;1.90;;
7076;SDS011;3579;48.956;9.154;2022-09-09T09:20:25;3.23;;;1.63;;
7076;SDS011;3579;48.956;9.154;2022-09-09T09:23:24;3.17;;;1.60;;
7076;SDS011;3579;48.956;9.154;2022-09-09T09:25:58;3.03;;;1.67;;
7076;SDS011;3579;48.956;9.154;2022-09-09T09:28:30;5.37;;;1.67;;
7076;SDS011;3579;48.956;9.154;2022-09-09T09:31:00;4.40;;;1.67;;
7076;SDS011;3579;48.956;9.154;2022-09-09T09:36:14;5.23;;;2.00;;
7076;SDS011;3579;48.956;9.154;2022-09-09T09:38:55;4.43;;;1.50;;
7076;SDS011;3579;48.956;9.154;2022-09-09T09:41:39;6.63;;;1.63;;
7076;SDS011;3579;48.956;9.154;2022-09-09T09:47:07;3.90;;;1.53;;
7076;SDS011;3579;48.956;9.154;2022-09-09T09:49:37;5.13;;;1.60;;
7076;SDS011;3579;48.956;9.154;2022-09-09T09:52:24;3.77;;;1.90;;
7076;SDS011;3579;48.956;9.154;2022-09-09T09:54:56;6.60;;;1.53;;
7076;SDS011;3579;48.956;9.154;2022-09-09T09:57:28;3.07;;;1.70;;
7076;SDS011;3579;48.956;9.154;2022-09-09T10:02:44;4.90;;;1.80;;
7076;SDS011;3579;48.956;9.154;2022-09-09T10:16:21;3.90;;;1.30;;
7076;SDS011;3579;48.956;9.154;2022-09-09T10:19:02;5.50;;;1.67;;
7076;SDS011;3579;48.956;9.154;2022-09-09T10:24:11;7.40;;;1.50;;
7076;SDS011;3579;48.956;9.154;2022-09-09T10:27:15;10.23;;;1.80;;
7076;SDS011;3579;48.956;9.154;2022-09-09T10:35:39;3.90;;;1.40;;
7076;SDS011;3579;48.956;9.154;2022-09-09T10:41:31;3.33;;;1.30;;
7076;SDS011;3579;48.956;9.154;2022-09-09T10:55:00;2.20;;;1.30;;
7076;SDS011;3579;48.956;9.154;2022-09-09T10:57:40;3.73;;;1.47;;
7076;SDS011;3579;48.956;9.154;2022-09-09T11:00:20;3.50;;;1.40;;
7076;SDS011;3579;48.956;9.154;2022-09-09T11:08:17;3.07;;;1.33;;
7076;SDS011;3579;48.956;9.154;2022-09-09T11:16:41;4.73;;;1.63;;
7076;SDS011;3579;48.956;9.154;2022-09-09T11:19:14;5.27;;;1.47;;
7076;SDS011;3579;48.956;9.154;2022-09-09T11:21:52;4.00;;;1.57;;
7076;SDS011;3579;48.956;9.154;2022-09-09T11:27:28;6.57;;;1.60;;
7076;SDS011;3579;48.956;9.154;2022-09-09T11:32:42;4.73;;;1.80;;
7076;SDS011;3579;48.956;9.154;2022-09-09T11:35:30;3.20;;;1.20;;
7076;SDS011;3579;48.956;9.154;2022-09-09T11:40:54;9.73;;;1.83;;
7076;SDS011;3579;48.956;9.154;2022-09-09T11:46:04;6.10;;;1.30;;
7076;SDS011;3579;48.956;9.154;2022-09-09T11:48:43;4.67;;;1.47;;
7076;SDS011;3579;48.956;9.154;2022-09-09T11:53:53;5.93;;;1.50;;
7076;SDS011;3579;48.956;9.154;2022-09-09T11:56:30;5.10;;;1.20;;
7076;SDS011;3579;48.956;9.154;2022-09-09T11:59:22;6.90;;;1.30;;
7076;SDS011;3579;48.956;9.154;2022-09-09T12:01:58;2.87;;;1.27;;
7076;SDS011;3579;48.956;9.154;2022-09-09T12:07:41;4.73;;;1.30;;
7076;SDS011;3579;48.956;9.154;2022-09-09T12:16:03;3.53;;;1.20;;
7076;SDS011;3579;48.956;9.154;2022-09-09T12:24:01;3.87;;;1.40;;
7076;SDS011;3579;48.956;9.154;2022-09-09T12:26:39;4.13;;;1.40;;
7076;SDS011;3579;48.956;9.154;2022-09-09T12:34:38;2.87;;;1.20;;
7076;SDS011;3579;48.956;9.154;2022-09-09T12:40:03;2.67;;;1.20;;
7076;SDS011;3579;48.956;9.154;2022-09-09T12:42:32;3.07;;;1.20;;
7076;SDS011;3579;48.956;9.154;2022-09-09T12:45:02;2.40;;;1.00;;
7076;SDS011;3579;48.956;9.154;2022-09-09T12:47:42;2.73;;;1.30;;
7076;SDS011;3579;48.956;9.154;2022-09-09T12:50:20;3.50;;;1.20;;
7076;SDS011;3579;48.956;9.154;2022-09-09T12:52:51;2.93;;;1.10;;
7076;SDS011;3579;48.956;9.154;2022-09-09T12:55:24;2.07;;;1.13;;
7076;SDS011;3579;48.956;9.154;2022-09-09T12:57:55;3.60;;;1.30;;
7076;SDS011;3579;48.956;9.154;2022-09-09T13:00:24;2.30;;;1.10;;
7076;SDS011;3579;48.956;9.154;2022-09-09T13:02:52;2.03;;;1.07;;
7076;SDS011;3579;48.956;9.154;2022-09-09T13:05:23;1.40;;;1.00;;
7076;SDS011;3579;48.956;9.154;2022-09-09T13:07:50;2.57;;;1.10;;
7076;SDS011;3579;48.956;9.154;2022-09-09T13:10:24;2.43;;;1.07;;
7076;SDS011;3579;48.956;9.154;2022-09-09T13:12:53;2.60;;;1.30;;
7076;SDS011;3579;48.956;9.154;2022-09-09T13:15:21;1.70;;;1.10;;
7076;SDS011;3579;48.956;9.154;2022-09-09T13:17:51;3.70;;;1.17;;
7076;SDS011;3579;48.956;9.154;2022-09-09T13:20:22;2.97;;;1.50;;
7076;SDS011;3579;48.956;9.154;2022-09-09T13:22:50;1.70;;;1.00;;
7076;SDS011;3579;48.956;9.154;2022-09-09T13:25:19;3.53;;;1.20;;
7076;SDS011;3579;48.956;9.154;2022-09-09T13:27:59;2.57;;;1.00;;
7076;SDS011;3579;48.956;9.154;2022-09-09T13:30:29;3.13;;;1.27;;
7076;SDS011;3579;48.956;9.154;2022-09-09T13:33:17;2.13;;;1.30;;
7076;SDS011;3579;48.956;9.154;2022-09-09T13:35:50;4.33;;;1.23;;
7076;SDS011;3579;48.956;9.154;2022-09-09T13:38:21;3.33;;;1.33;;
7076;SDS011;3579;48.956;9.154;2022-09-09T13:40:57;5.23;;;1.20;;
7076;SDS011;3579;48.956;9.154;2022-09-09T13:43:27;2.67;;;1.43;;
7076;SDS011;3579;48.956;9.154;2022-09-09T13:45:57;3.97;;;1.33;;
7076;SDS011;3579;48.956;9.154;2022-09-09T13:48:25;2.10;;;1.20;;
7076;SDS011;3579;48.956;9.154;2022-09-09T13:51:02;1.97;;;1.30;;
7076;SDS011;3579;48.956;9.154;2022-09-09T13:53:32;1.80;;;1.00;;
7076;SDS011;3579;48.956;9.154;2022-09-09T13:55:58;3.17;;;1.37;;
7076;SDS011;3579;48.956;9.154;2022-09-09T13:58:25;2.03;;;1.20;;
7076;SDS011;3579;48.956;9.154;2022-09-09T14:00:52;1.80;;;1.07;;
7076;SDS011;3579;48.956;9.154;2022-09-09T14:03:19;2.40;;;1.10;;
7076;SDS011;3579;48.956;9.154;2022-09-09T14:05:45;3.73;;;1.30;;
7076;SDS011;3579;48.956;9.154;2022-09-09T14:08:20;2.20;;;1.10;;
7076;SDS011;3579;48.956;9.154;2022-09-09T14:10:49;2.20;;;1.13;;
7076;SDS011;3579;48.956;9.154;2022-09-09T14:13:15;2.30;;;1.30;;
7076;SDS011;3579;48.956;9.154;2022-09-09T14:15:42;4.13;;;1.20;;
7076;SDS011;3579;48.956;9.154;2022-09-09T14:18:09;4.13;;;1.40;;
7076;SDS011;3579;48.956;9.154;2022-09-09T14:20:39;2.13;;;1.37;;
7076;SDS011;3579;48.956;9.154;2022-09-09T14:23:05;3.03;;;1.30;;
7076;SDS011;3579;48.956;9.154;2022-09-09T14:25:35;3.03;;;1.23;;
7076;SDS011;3579;48.956;9.154;2022-09-09T14:28:01;2.93;;;1.20;;
7076;SDS011;3579;48.956;9.154;2022-09-09T14:30:28;2.13;;;1.10;;
7076;SDS011;3579;48.956;9.154;2022-09-09T14:32:54;1.80;;;1.20;;
7076;SDS011;3579;48.956;9.154;2022-09-09T14:35:20;1.67;;;1.23;;
7076;SDS011;3579;48.956;9.154;2022-09-09T14:37:47;2.70;;;1.30;;
7076;SDS011;3579;48.956;9.154;2022-09-09T14:40:14;2.57;;;1.20;;
7076;SDS011;3579;48.956;9.154;2022-09-09T14:42:40;2.33;;;1.10;;
7076;SDS011;3579;48.956;9.154;2022-09-09T14:45:06;3.97;;;1.33;;
7076;SDS011;3579;48.956;9.154;2022-09-09T14:47:33;2.23;;;1.10;;
7076;SDS011;3579;48.956;9.154;2022-09-09T14:49:59;2.90;;;1.30;;
7076;SDS011;3579;48.956;9.154;2022-09-09T14:52:26;2.50;;;1.23;;
7076;SDS011;3579;48.956;9.154;2022-09-09T14:54:52;2.00;;;1.10;;
7076;SDS011;3579;48.956;9.154;2022-09-09T14:57:18;2.37;;;1.20;;
7076;SDS011;3579;48.956;9.154;2022-09-09T14:59:44;2.10;;;1.20;;
7076;SDS011;3579;48.956;9.154;2022-09-09T15:02:17;2.70;;;1.10;;
7076;SDS011;3579;48.956;9.154;2022-09-09T15:04:43;1.87;;;1.03;;
7076;SDS011;3579;48.956;9.154;2022-09-09T15:07:09;2.50;;;1.27;;
7076;SDS011;3579;48.956;9.154;2022-09-09T15:09:36;2.37;;;1.30;;
7076;SDS011;3579;48.956;9.154;2022-09-09T15:12:02;2.27;;;1.27;;
7076;SDS011;3579;48.956;9.154;2022-09-09T15:14:30;1.37;;;1.13;;
7076;SDS011;3579;48.956;9.154;2022-09-09T15:16:56;4.57;;;1.30;;
7076;SDS011;3579;48.956;9.154;2022-09-09T15:19:22;2.00;;;1.10;;
7076;SDS011;3579;48.956;9.154;2022-09-09T15:21:48;2.97;;;1.20;;
7076;SDS011;3579;48.956;9.154;2022-09-09T15:24:14;3.50;;;1.13;;
7076;SDS011;3579;48.956;9.154;2022-09-09T15:26:41;3.63;;;1.43;;
7076;SDS011;3579;48.956;9.154;2022-09-09T15:29:07;3.10;;;1.20;;
7076;SDS011;3579;48.956;9.154;2022-09-09T15:31:36;1.93;;;1.17;;
7076;SDS011;3579;48.956;9.154;2022-09-09T15:34:04;2.43;;;1.20;;
7076;SDS011;3579;48.956;9.154;2022-09-09T15:36:35;4.27;;;1.30;;
7076;SDS011;3579;48.956;9.154;2022-09-09T15:39:03;1.97;;;1.20;;
7076;SDS011;3579;48.956;9.154;2022-09-09T15:41:31;2.27;;;1.30;;
7076;SDS011;3579;48.956;9.154;2022-09-09T15:43:58;2.93;;;1.10;;
7076;SDS011;3579;48.956;9.154;2022-09-09T15:46:27;2.37;;;1.23;;
7076;SDS011;3579;48.956;9.154;2022-09-09T15:48:57;1.77;;;1.10;;
7076;SDS011;3579;48.956;9.154;2022-09-09T15:51:29;1.13;;;0.90;;
7076;SDS011;3579;48.956;9.154;2022-09-09T15:53:56;3.83;;;1.20;;
7076;SDS011;3579;48.956;9.154;2022-09-09T15:56:23;2.53;;;1.10;;
7076;SDS011;3579;48.956;9.154;2022-09-09T15:58:51;2.17;;;1.20;;
7076;SDS011;3579;48.956;9.154;2022-09-09T16:01:17;2.50;;;1.37;;
7076;SDS011;3579;48.956;9.154;2022-09-09T16:03:44;2.77;;;1.10;;
7076;SDS011;3579;48.956;9.154;2022-09-09T16:06:12;3.60;;;1.30;;
7076;SDS011;3579;48.956;9.154;2022-09-09T16:08:40;2.63;;;1.27;;
7076;SDS011;3579;48.956;9.154;2022-09-09T16:11:09;2.30;;;1.20;;
7076;SDS011;3579;48.956;9.154;2022-09-09T16:13:40;1.40;;;1.10;;
7076;SDS011;3579;48.956;9.154;2022-09-09T16:16:10;2.23;;;1.33;;
7076;SDS011;3579;48.956;9.154;2022-09-09T16:18:41;1.50;;;1.17;;
7076;SDS011;3579;48.956;9.154;2022-09-09T16:21:17;1.63;;;1.20;;
7076;SDS011;3579;48.956;9.154;2022-09-09T16:23:45;1.67;;;1.00;;
7076;SDS011;3579;48.956;9.154;2022-09-09T16:26:13;2.33;;;1.10;;
7076;SDS011;3579;48.956;9.154;2022-09-09T16:28:41;3.40;;;1.10;;
7076;SDS011;3579;48.956;9.154;2022-09-09T16:31:09;2.57;;;1.27;;
7076;SDS011;3579;48.956;9.154;2022-09-09T16:33:39;2.37;;;1.10;;
7076;SDS011;3579;48.956;9.154;2022-09-09T16:36:12;5.27;;;1.17;;
7076;SDS011;3579;48.956;9.154;2022-09-09T16:38:40;1.83;;;1.30;;
7076;SDS011;3579;48.956;9.154;2022-09-09T16:41:08;2.60;;;1.30;;
7076;SDS011;3579;48.956;9.154;2022-09-09T16:43:36;2.00;;;1.20;;
7076;SDS011;3579;48.956;9.154;2022-09-09T16:46:03;1.73;;;1.10;;
7076;SDS011;3579;48.956;9.154;2022-09-09T16:48:37;2.83;;;1.23;;
7076;SDS011;3579;48.956;9.154;2022-09-09T16:51:04;1.70;;;1.00;;
7076;SDS011;3579;48.956;9.154;2022-09-09T16:53:36;2.50;;;1.20;;
7076;SDS011;3579;48.956;9.154;2022-09-09T16:56:06;2.10;;;1.17;;
7076;SDS011;3579;48.956;9.154;2022-09-09T16:58:32;1.90;;;1.27;;
7076;SDS011;3579;48.956;9.154;2022-09-09T17:00:59;1.20;;;0.93;;
7076;SDS011;3579;48.956;9.154;2022-09-09T17:03:27;2.73;;;1.27;;
7076;SDS011;3579;48.956;9.154;2022-09-09T17:05:53;2.60;;;1.10;;
7076;SDS011;3579;48.956;9.154;2022-09-09T17:08:19;3.20;;;1.10;;
7076;SDS011;3579;48.956;9.154;2022-09-09T17:10:45;1.80;;;1.03;;
7076;SDS011;3579;48.956;9.154;2022-09-09T17:13:13;2.13;;;1.10;;
7076;SDS011;3579;48.956;9.154;2022-09-09T17:15:39;1.63;;;0.90;;
7076;SDS011;3579;48.956;9.154;2022-09-09T17:18:10;1.60;;;1.10;;
7076;SDS011;3579;48.956;9.154;2022-09-09T17:20:37;2.23;;;1.10;;
7076;SDS011;3579;48.956;9.154;2022-09-09T17:23:07;2.27;;;1.30;;
7076;SDS011;3579;48.956;9.154;2022-09-09T17:25:35;1.83;;;1.00;;
7076;SDS011;3579;48.956;9.154;2022-09-09T17:28:01;1.90;;;1.10;;
7076;SDS011;3579;48.956;9.154;2022-09-09T17:30:29;1.40;;;1.10;;
7076;SDS011;3579;48.956;9.154;2022-09-09T17:32:59;1.53;;;1.07;;
7076;SDS011;3579;48.956;9.154;2022-09-09T17:35:26;1.47;;;1.00;;
7076;SDS011;3579;48.956;9.154;2022-09-09T17:37:53;4.63;;;1.10;;
7076;SDS011;3579;48.956;9.154;2022-09-09T17:40:20;2.10;;;1.07;;
7076;SDS011;3579;48.956;9.154;2022-09-09T17:42:46;2.43;;;1.07;;
7076;SDS011;3579;48.956;9.154;2022-09-09T17:45:12;1.47;;;0.93;;
7076;SDS011;3579;48.956;9.154;2022-09-09T17:47:39;2.37;;;1.20;;
7076;SDS011;3579;48.956;9.154;2022-09-09T17:50:06;1.50;;;0.90;;
7076;SDS011;3579;48.956;9.154;2022-09-09T17:52:32;4.13;;;1.57;;
7076;SDS011;3579;48.956;9.154;2022-09-09T17:54:58;1.20;;;0.97;;
7076;SDS011;3579;48.956;9.154;2022-09-09T17:57:25;2.53;;;1.03;;
7076;SDS011;3579;48.956;9.154;2022-09-09T17:59:51;1.83;;;1.03;;
7076;SDS011;3579;48.956;9.154;2022-09-09T18:02:17;1.53;;;1.00;;
7076;SDS011;3579;48.956;9.154;2022-09-09T18:04:43;1.33;;;1.03;;
7076;SDS011;3579;48.956;9.154;2022-09-09T18:07:09;1.80;;;1.00;;
7076;SDS011;3579;48.956;9.154;2022-09-09T18:09:35;2.60;;;1.20;;
7076;SDS011;3579;48.956;9.154;2022-09-09T18:12:03;3.10;;;1.00;;
7076;SDS011;3579;48.956;9.154;2022-09-09T18:14:30;1.77;;;1.00;;